sensor_id;sensor_type;location;lat;lon;timestamp;temperature;humidity
15834;DHT22;8017;50.812;4.934;2022-09-11T00:01:38;14.70;99.90
15834;DHT22;8017;50.812;4.934;2022-09-11T00:04:40;14.70;99.90
15834;DHT22;8017;50.812;4.934;2022-09-11T00:07:42;14.70;99.90
15834;DHT22;8017;50.812;4.934;2022-09-11T00:10:47;14.70;99.90
15834;DHT22;8017;50.812;4.934;2022-09-11T00:13:50;14.60;99.90
15834;DHT22;8017;50.812;4.934;2022-09-11T00:16:53;14.60;99.90
15834;DHT22;8017;50.812;4.934;2022-09-11T00:19:55;14.50;99.90
15834;DHT22;8017;50.812;4.934;2022-09-11T00:22:57;14.50;99.90
15834;DHT22;8017;50.812;4.934;2022-09-11T00:26:02;14.50;99.90
15834;DHT22;8017;50.812;4.934;2022-09-11T00:29:04;14.50;99.90
15834;DHT22;8017;50.812;4.934;2022-09-11T00:32:06;14.50;99.90
15834;DHT22;8017;50.812;4.934;2022-09-11T00:35:09;14.50;99.90
15834;DHT22;8017;50.812;4.934;2022-09-11T00:38:12;14.70;99.90
15834;DHT22;8017;50.812;4.934;2022-09-11T00:41:19;14.80;99.90
15834;DHT22;8017;50.812;4.934;2022-09-11T00:44:56;14.60;99.90
15834;DHT22;8017;50.812;4.934;2022-09-11T00:48:00;14.60;99.90
15834;DHT22;8017;50.812;4.934;2022-09-11T00:51:03;14.50;99.90
15834;DHT22;8017;50.812;4.934;2022-09-11T00:54:07;14.50;99.90
15834;DHT22;8017;50.812;4.934;2022-09-11T00:57:13;14.50;99.90
15834;DHT22;8017;50.812;4.934;2022-09-11T01:00:15;14.40;99.90
15834;DHT22;8017;50.812;4.934;2022-09-11T01:03:17;14.50;99.90
15834;DHT22;8017;50.812;4.934;2022-09-11T01:06:19;14.40;99.90
15834;DHT22;8017;50.812;4.934;2022-09-11T01:09:22;14.40;99.90
15834;DHT22;8017;50.812;4.934;2022-09-11T01:12:31;14.40;99.90
15834;DHT22;8017;50.812;4.934;2022-09-11T01:15:40;14.40;99.90
15834;DHT22;8017;50.812;4.934;2022-09-11T01:18:48;14.40;99.90
15834;DHT22;8017;50.812;4.934;2022-09-11T01:22:36;14.40;99.90
15834;DHT22;8017;50.812;4.934;2022-09-11T01:26:00;14.30;99.90
15834;DHT22;8017;50.812;4.934;2022-09-11T01:29:13;14.30;99.90
15834;DHT22;8017;50.812;4.934;2022-09-11T01:32:20;14.20;99.90
15834;DHT22;8017;50.812;4.934;2022-09-11T01:35:29;14.20;99.90
15834;DHT22;8017;50.812;4.934;2022-09-11T01:38:39;14.20;99.90
15834;DHT22;8017;50.812;4.934;2022-09-11T01:41:46;14.10;99.90
15834;DHT22;8017;50.812;4.934;2022-09-11T01:44:51;14.20;99.90
15834;DHT22;8017;50.812;4.934;2022-09-11T01:47:54;14.10;99.90
15834;DHT22;8017;50.812;4.934;2022-09-11T01:50:58;14.10;99.90
15834;DHT22;8017;50.812;4.934;2022-09-11T01:54:02;14.10;99.90
15834;DHT22;8017;50.812;4.934;2022-09-11T01:57:11;14.00;99.90
15834;DHT22;8017;50.812;4.934;2022-09-11T02:00:17;14.00;99.90
15834;DHT22;8017;50.812;4.934;2022-09-11T02:03:22;14.00;99.90
15834;DHT22;8017;50.812;4.934;2022-09-11T02:06:30;14.00;99.90
15834;DHT22;8017;50.812;4.934;2022-09-11T02:09:38;14.00;99.90
15834;DHT22;8017;50.812;4.934;2022-09-11T02:12:49;14.00;99.90
15834;DHT22;8017;50.812;4.934;2022-09-11T02:15:56;14.00;99.90
15834;DHT22;8017;50.812;4.934;2022-09-11T02:19:01;14.00;99.90
15834;DHT22;8017;50.812;4.934;2022-09-11T02:22:04;14.00;99.90
15834;DHT22;8017;50.812;4.934;2022-09-11T02:25:07;13.90;99.90
15834;DHT22;8017;50.812;4.934;2022-09-11T02:28:10;13.90;99.90
15834;DHT22;8017;50.812;4.934;2022-09-11T02:31:13;13.90;99.90
15834;DHT22;8017;50.812;4.934;2022-09-11T02:34:16;13.90;99.90
15834;DHT22;8017;50.812;4.934;2022-09-11T02:37:28;13.90;99.90
15834;DHT22;8017;50.812;4.934;2022-09-11T02:40:42;13.90;99.90
15834;DHT22;8017;50.812;4.934;2022-09-11T02:43:55;14.00;99.90
15834;DHT22;8017;50.812;4.934;2022-09-11T02:47:09;14.00;99.90
15834;DHT22;8017;50.812;4.934;2022-09-11T02:50:19;14.00;99.90
15834;DHT22;8017;50.812;4.934;2022-09-11T02:53:30;14.00;99.90
15834;DHT22;8017;50.812;4.934;2022-09-11T02:56:39;14.00;99.90
15834;DHT22;8017;50.812;4.934;2022-09-11T02:59:45;14.00;99.90
15834;DHT22;8017;50.812;4.934;2022-09-11T03:02:51;14.00;99.90
15834;DHT22;8017;50.812;4.934;2022-09-11T03:05:54;14.00;99.90
15834;DHT22;8017;50.812;4.934;2022-09-11T03:08:56;14.00;99.90
15834;DHT22;8017;50.812;4.934;2022-09-11T03:11:58;14.00;99.90
15834;DHT22;8017;50.812;4.934;2022-09-11T03:15:00;13.90;99.90
15834;DHT22;8017;50.812;4.934;2022-09-11T03:18:03;13.90;99.90
15834;DHT22;8017;50.812;4.934;2022-09-11T03:21:05;13.80;99.90
15834;DHT22;8017;50.812;4.934;2022-09-11T03:24:10;13.70;99.90
15834;DHT22;8017;50.812;4.934;2022-09-11T03:27:13;13.70;99.90
15834;DHT22;8017;50.812;4.934;2022-09-11T03:30:15;13.60;99.90
15834;DHT22;8017;50.812;4.934;2022-09-11T03:33:18;13.70;99.90
15834;DHT22;8017;50.812;4.934;2022-09-11T03:36:20;13.70;99.90
15834;DHT22;8017;50.812;4.934;2022-09-11T03:39:22;13.60;99.90
15834;DHT22;8017;50.812;4.934;2022-09-11T03:42:24;13.70;99.90
15834;DHT22;8017;50.812;4.934;2022-09-11T03:45:26;13.80;99.90
15834;DHT22;8017;50.812;4.934;2022-09-11T03:48:29;13.90;99.90
15834;DHT22;8017;50.812;4.934;2022-09-11T03:51:31;14.00;99.90
15834;DHT22;8017;50.812;4.934;2022-09-11T03:54:34;14.00;99.90
15834;DHT22;8017;50.812;4.934;2022-09-11T03:57:36;14.10;99.90
15834;DHT22;8017;50.812;4.934;2022-09-11T04:00:40;14.10;99.90
15834;DHT22;8017;50.812;4.934;2022-09-11T04:03:44;14.00;99.90
15834;DHT22;8017;50.812;4.934;2022-09-11T04:06:46;14.00;99.90
15834;DHT22;8017;50.812;4.934;2022-09-11T04:09:48;14.00;99.90
15834;DHT22;8017;50.812;4.934;2022-09-11T04:12:50;14.00;99.90
15834;DHT22;8017;50.812;4.934;2022-09-11T04:15:52;14.00;99.90
15834;DHT22;8017;50.812;4.934;2022-09-11T04:18:55;14.10;99.90
15834;DHT22;8017;50.812;4.934;2022-09-11T04:21:57;14.10;99.90
15834;DHT22;8017;50.812;4.934;2022-09-11T04:24:59;14.10;99.90
15834;DHT22;8017;50.812;4.934;2022-09-11T04:28:02;14.00;99.90
15834;DHT22;8017;50.812;4.934;2022-09-11T04:31:04;14.00;99.90
15834;DHT22;8017;50.812;4.934;2022-09-11T04:34:08;14.00;99.90
15834;DHT22;8017;50.812;4.934;2022-09-11T04:37:10;14.00;99.90
15834;DHT22;8017;50.812;4.934;2022-09-11T04:40:12;14.00;99.90
15834;DHT22;8017;50.812;4.934;2022-09-11T04:43:14;14.10;99.90
15834;DHT22;8017;50.812;4.934;2022-09-11T04:46:17;14.10;99.90
15834;DHT22;8017;50.812;4.934;2022-09-11T04:49:20;14.20;99.90
15834;DHT22;8017;50.812;4.934;2022-09-11T04:52:22;14.30;99.90
15834;DHT22;8017;50.812;4.934;2022-09-11T04:55:24;14.40;99.90
15834;DHT22;8017;50.812;4.934;2022-09-11T04:58:26;14.40;99.90
15834;DHT22;8017;50.812;4.934;2022-09-11T05:01:30;14.50;99.90
15834;DHT22;8017;50.812;4.934;2022-09-11T05:04:34;14.50;99.90
15834;DHT22;8017;50.812;4.934;2022-09-11T05:07:36;14.60;99.90
15834;DHT22;8017;50.812;4.934;2022-09-11T05:10:38;14.60;99.90
15834;DHT22;8017;50.812;4.934;2022-09-11T05:13:42;14.60;99.90
15834;DHT22;8017;50.812;4.934;2022-09-11T05:16:44;14.70;99.90
15834;DHT22;8017;50.812;4.934;2022-09-11T05:19:47;14.70;99.90
15834;DHT22;8017;50.812;4.934;2022-09-11T05:22:50;14.70;99.90
15834;DHT22;8017;50.812;4.934;2022-09-11T05:25:56;14.70;99.90
15834;DHT22;8017;50.812;4.934;2022-09-11T05:28:59;14.70;99.90
15834;DHT22;8017;50.812;4.934;2022-09-11T05:32:01;14.60;99.90
15834;DHT22;8017;50.812;4.934;2022-09-11T05:35:07;14.60;99.90
15834;DHT22;8017;50.812;4.934;2022-09-11T05:38:09;14.60;99.90
15834;DHT22;8017;50.812;4.934;2022-09-11T05:41:12;14.70;99.90
15834;DHT22;8017;50.812;4.934;2022-09-11T05:44:14;14.70;99.90
15834;DHT22;8017;50.812;4.934;2022-09-11T05:47:16;14.90;99.90
15834;DHT22;8017;50.812;4.934;2022-09-11T05:50:20;14.90;99.90
15834;DHT22;8017;50.812;4.934;2022-09-11T05:53:22;15.00;99.90
15834;DHT22;8017;50.812;4.934;2022-09-11T05:56:24;15.10;99.90
15834;DHT22;8017;50.812;4.934;2022-09-11T05:59:27;15.10;99.90
15834;DHT22;8017;50.812;4.934;2022-09-11T06:02:30;15.20;99.90
15834;DHT22;8017;50.812;4.934;2022-09-11T06:05:34;15.30;99.90
15834;DHT22;8017;50.812;4.934;2022-09-11T06:08:37;15.50;99.90
15834;DHT22;8017;50.812;4.934;2022-09-11T06:11:39;15.50;99.90
15834;DHT22;8017;50.812;4.934;2022-09-11T06:14:41;15.40;99.90
15834;DHT22;8017;50.812;4.934;2022-09-11T06:17:43;15.40;99.90
15834;DHT22;8017;50.812;4.934;2022-09-11T06:20:56;15.30;99.90
15834;DHT22;8017;50.812;4.934;2022-09-11T06:23:58;15.30;99.90
15834;DHT22;8017;50.812;4.934;2022-09-11T06:26:59;15.20;99.90
15834;DHT22;8017;50.812;4.934;2022-09-11T06:30:01;15.20;99.90
15834;DHT22;8017;50.812;4.934;2022-09-11T06:33:03;15.20;99.90
15834;DHT22;8017;50.812;4.934;2022-09-11T06:36:09;15.30;99.90
15834;DHT22;8017;50.812;4.934;2022-09-11T06:39:11;15.20;99.90
15834;DHT22;8017;50.812;4.934;2022-09-11T06:42:13;15.20;99.90
15834;DHT22;8017;50.812;4.934;2022-09-11T06:45:15;15.30;99.90
15834;DHT22;8017;50.812;4.934;2022-09-11T06:48:17;15.40;99.90
15834;DHT22;8017;50.812;4.934;2022-09-11T06:51:21;15.60;99.90
15834;DHT22;8017;50.812;4.934;2022-09-11T06:54:23;15.60;99.90
15834;DHT22;8017;50.812;4.934;2022-09-11T06:57:25;15.60;99.90
15834;DHT22;8017;50.812;4.934;2022-09-11T07:00:28;15.60;99.90
15834;DHT22;8017;50.812;4.934;2022-09-11T07:03:31;15.60;99.90
15834;DHT22;8017;50.812;4.934;2022-09-11T07:06:34;15.80;99.90
15834;DHT22;8017;50.812;4.934;2022-09-11T07:09:37;16.10;99.90
15834;DHT22;8017;50.812;4.934;2022-09-11T07:12:39;16.20;99.90
15834;DHT22;8017;50.812;4.934;2022-09-11T07:15:41;16.30;99.90
15834;DHT22;8017;50.812;4.934;2022-09-11T07:18:44;16.40;99.90
15834;DHT22;8017;50.812;4.934;2022-09-11T07:21:48;16.70;99.90
15834;DHT22;8017;50.812;4.934;2022-09-11T07:24:50;16.70;99.90
15834;DHT22;8017;50.812;4.934;2022-09-11T07:27:54;16.70;99.90
15834;DHT22;8017;50.812;4.934;2022-09-11T07:31:03;16.80;99.90
15834;DHT22;8017;50.812;4.934;2022-09-11T07:34:05;16.70;99.90
15834;DHT22;8017;50.812;4.934;2022-09-11T07:37:08;16.80;99.90
15834;DHT22;8017;50.812;4.934;2022-09-11T07:40:10;17.00;99.90
15834;DHT22;8017;50.812;4.934;2022-09-11T07:43:12;17.10;99.90
15834;DHT22;8017;50.812;4.934;2022-09-11T07:46:14;17.40;99.90
15834;DHT22;8017;50.812;4.934;2022-09-11T07:49:16;17.60;99.90
15834;DHT22;8017;50.812;4.934;2022-09-11T07:52:20;17.90;99.90
15834;DHT22;8017;50.812;4.934;2022-09-11T07:55:22;18.10;99.90
15834;DHT22;8017;50.812;4.934;2022-09-11T07:58:23;18.10;99.90
15834;DHT22;8017;50.812;4.934;2022-09-11T08:01:27;18.10;99.90
15834;DHT22;8017;50.812;4.934;2022-09-11T08:04:29;18.10;99.90
15834;DHT22;8017;50.812;4.934;2022-09-11T08:07:33;18.30;99.90
15834;DHT22;8017;50.812;4.934;2022-09-11T08:10:36;18.20;99.90
15834;DHT22;8017;50.812;4.934;2022-09-11T08:13:40;18.30;99.90
15834;DHT22;8017;50.812;4.934;2022-09-11T08:16:42;18.50;99.90
15834;DHT22;8017;50.812;4.934;2022-09-11T08:19:45;18.40;99.90
15834;DHT22;8017;50.812;4.934;2022-09-11T08:22:48;18.50;99.90
15834;DHT22;8017;50.812;4.934;2022-09-11T08:25:50;18.20;99.90
15834;DHT22;8017;50.812;4.934;2022-09-11T08:28:54;18.10;99.90
15834;DHT22;8017;50.812;4.934;2022-09-11T08:31:56;17.90;99.90
15834;DHT22;8017;50.812;4.934;2022-09-11T08:34:58;18.00;99.90
15834;DHT22;8017;50.812;4.934;2022-09-11T08:38:01;18.10;99.90
15834;DHT22;8017;50.812;4.934;2022-09-11T08:41:10;18.30;99.90
15834;DHT22;8017;50.812;4.934;2022-09-11T08:44:17;18.80;99.90
15834;DHT22;8017;50.812;4.934;2022-09-11T08:47:23;19.20;99.90
15834;DHT22;8017;50.812;4.934;2022-09-11T08:50:27;19.20;99.90
15834;DHT22;8017;50.812;4.934;2022-09-11T08:53:33;19.20;99.90
15834;DHT22;8017;50.812;4.934;2022-09-11T08:56:35;19.20;99.90
15834;DHT22;8017;50.812;4.934;2022-09-11T08:59:53;19.00;99.90
15834;DHT22;8017;50.812;4.934;2022-09-11T09:03:27;18.90;99.90
15834;DHT22;8017;50.812;4.934;2022-09-11T09:06:49;19.10;99.90
15834;DHT22;8017;50.812;4.934;2022-09-11T09:10:02;19.30;99.90
15834;DHT22;8017;50.812;4.934;2022-09-11T09:13:19;19.40;99.90
15834;DHT22;8017;50.812;4.934;2022-09-11T09:16:30;19.20;99.90
15834;DHT22;8017;50.812;4.934;2022-09-11T09:19:43;19.30;99.90
15834;DHT22;8017;50.812;4.934;2022-09-11T09:22:49;19.40;99.90
15834;DHT22;8017;50.812;4.934;2022-09-11T09:25:55;19.60;99.90
15834;DHT22;8017;50.812;4.934;2022-09-11T09:28:58;19.90;99.90
15834;DHT22;8017;50.812;4.934;2022-09-11T09:32:05;19.90;99.90
15834;DHT22;8017;50.812;4.934;2022-09-11T09:35:14;19.80;99.90
15834;DHT22;8017;50.812;4.934;2022-09-11T09:38:20;20.00;99.90
15834;DHT22;8017;50.812;4.934;2022-09-11T09:41:41;20.10;99.90
15834;DHT22;8017;50.812;4.934;2022-09-11T09:45:04;20.20;99.90
15834;DHT22;8017;50.812;4.934;2022-09-11T09:48:10;20.50;99.90
15834;DHT22;8017;50.812;4.934;2022-09-11T09:51:12;20.60;99.90
15834;DHT22;8017;50.812;4.934;2022-09-11T09:54:16;20.90;99.90
15834;DHT22;8017;50.812;4.934;2022-09-11T09:57:23;21.10;99.90
15834;DHT22;8017;50.812;4.934;2022-09-11T10:00:27;21.30;99.90
15834;DHT22;8017;50.812;4.934;2022-09-11T10:03:32;21.30;99.90
15834;DHT22;8017;50.812;4.934;2022-09-11T10:06:34;21.30;99.90
15834;DHT22;8017;50.812;4.934;2022-09-11T10:09:43;21.20;99.90
15834;DHT22;8017;50.812;4.934;2022-09-11T10:12:47;21.40;99.90
15834;DHT22;8017;50.812;4.934;2022-09-11T10:15:51;21.50;99.90
15834;DHT22;8017;50.812;4.934;2022-09-11T10:18:54;21.70;99.90
15834;DHT22;8017;50.812;4.934;2022-09-11T10:22:24;21.80;99.90
15834;DHT22;8017;50.812;4.934;2022-09-11T10:25:26;21.40;99.90
15834;DHT22;8017;50.812;4.934;2022-09-11T10:28:32;21.10;99.90
15834;DHT22;8017;50.812;4.934;2022-09-11T10:31:38;20.90;99.90
15834;DHT22;8017;50.812;4.934;2022-09-11T10:34:40;20.80;99.90
15834;DHT22;8017;50.812;4.934;2022-09-11T10:37:43;20.60;99.90
15834;DHT22;8017;50.812;4.934;2022-09-11T10:41:03;20.50;99.90
15834;DHT22;8017;50.812;4.934;2022-09-11T10:44:13;20.70;99.90
15834;DHT22;8017;50.812;4.934;2022-09-11T10:47:21;20.80;99.90
15834;DHT22;8017;50.812;4.934;2022-09-11T10:50:25;21.10;99.90
15834;DHT22;8017;50.812;4.934;2022-09-11T10:53:30;21.20;99.90
15834;DHT22;8017;50.812;4.934;2022-09-11T10:56:38;21.40;99.90
15834;DHT22;8017;50.812;4.934;2022-09-11T10:59:54;21.50;99.90
15834;DHT22;8017;50.812;4.934;2022-09-11T11:03:02;21.80;99.90
15834;DHT22;8017;50.812;4.934;2022-09-11T11:06:14;22.00;99.90
15834;DHT22;8017;50.812;4.934;2022-09-11T11:09:29;22.40;99.90
15834;DHT22;8017;50.812;4.934;2022-09-11T11:12:44;22.80;99.90
15834;DHT22;8017;50.812;4.934;2022-09-11T11:15:58;22.90;99.90
15834;DHT22;8017;50.812;4.934;2022-09-11T11:19:12;23.00;99.90
15834;DHT22;8017;50.812;4.934;2022-09-11T11:22:28;23.30;99.90
15834;DHT22;8017;50.812;4.934;2022-09-11T11:25:43;23.60;99.90
15834;DHT22;8017;50.812;4.934;2022-09-11T11:29:17;23.80;99.90
15834;DHT22;8017;50.812;4.934;2022-09-11T11:35:55;22.90;99.90
15834;DHT22;8017;50.812;4.934;2022-09-11T11:39:11;22.50;99.90
15834;DHT22;8017;50.812;4.934;2022-09-11T11:42:21;22.30;99.90
15834;DHT22;8017;50.812;4.934;2022-09-11T11:45:27;22.30;99.90
15834;DHT22;8017;50.812;4.934;2022-09-11T11:48:36;22.00;99.90
15834;DHT22;8017;50.812;4.934;2022-09-11T11:51:47;21.90;99.90
15834;DHT22;8017;50.812;4.934;2022-09-11T11:54:53;21.50;99.90
15834;DHT22;8017;50.812;4.934;2022-09-11T11:58:06;21.40;99.90
15834;DHT22;8017;50.812;4.934;2022-09-11T12:01:20;21.30;99.90
15834;DHT22;8017;50.812;4.934;2022-09-11T12:04:33;21.30;99.90
15834;DHT22;8017;50.812;4.934;2022-09-11T12:07:38;21.40;99.90
15834;DHT22;8017;50.812;4.934;2022-09-11T12:10:44;21.40;99.90
15834;DHT22;8017;50.812;4.934;2022-09-11T12:13:47;21.40;99.90
15834;DHT22;8017;50.812;4.934;2022-09-11T12:16:49;21.30;99.90
15834;DHT22;8017;50.812;4.934;2022-09-11T12:20:26;21.30;99.90
15834;DHT22;8017;50.812;4.934;2022-09-11T12:23:34;21.10;99.90
15834;DHT22;8017;50.812;4.934;2022-09-11T12:30:59;21.10;99.90
15834;DHT22;8017;50.812;4.934;2022-09-11T12:34:01;21.30;99.90
15834;DHT22;8017;50.812;4.934;2022-09-11T12:37:09;21.40;99.90
15834;DHT22;8017;50.812;4.934;2022-09-11T12:40:15;21.50;99.90
15834;DHT22;8017;50.812;4.934;2022-09-11T12:43:29;21.90;99.90
15834;DHT22;8017;50.812;4.934;2022-09-11T12:50:17;21.90;99.90
15834;DHT22;8017;50.812;4.934;2022-09-11T12:53:24;22.00;99.90
15834;DHT22;8017;50.812;4.934;2022-09-11T12:56:29;22.00;99.90
15834;DHT22;8017;50.812;4.934;2022-09-11T12:59:34;22.10;99.90
15834;DHT22;8017;50.812;4.934;2022-09-11T13:02:40;22.20;99.90
15834;DHT22;8017;50.812;4.934;2022-09-11T13:05:43;22.20;99.90
15834;DHT22;8017;50.812;4.934;2022-09-11T13:08:56;22.30;99.90
15834;DHT22;8017;50.812;4.934;2022-09-11T13:15:37;22.60;99.90
15834;DHT22;8017;50.812;4.934;2022-09-11T13:18:42;22.70;99.90
15834;DHT22;8017;50.812;4.934;2022-09-11T13:21:44;22.80;99.90
15834;DHT22;8017;50.812;4.934;2022-09-11T13:24:50;22.80;99.90
15834;DHT22;8017;50.812;4.934;2022-09-11T13:27:54;22.80;99.90
15834;DHT22;8017;50.812;4.934;2022-09-11T13:30:58;22.90;99.90
15834;DHT22;8017;50.812;4.934;2022-09-11T13:34:04;23.00;99.90
15834;DHT22;8017;50.812;4.934;2022-09-11T13:37:08;23.20;99.90
15834;DHT22;8017;50.812;4.934;2022-09-11T13:40:18;23.20;99.90
15834;DHT22;8017;50.812;4.934;2022-09-11T13:43:24;23.00;99.90
15834;DHT22;8017;50.812;4.934;2022-09-11T13:46:30;22.70;99.90
15834;DHT22;8017;50.812;4.934;2022-09-11T13:49:34;22.50;99.90
15834;DHT22;8017;50.812;4.934;2022-09-11T13:52:36;22.50;99.90
15834;DHT22;8017;50.812;4.934;2022-09-11T13:55:45;22.90;99.90
15834;DHT22;8017;50.812;4.934;2022-09-11T13:58:48;23.40;99.90
15834;DHT22;8017;50.812;4.934;2022-09-11T14:01:51;23.60;99.90
15834;DHT22;8017;50.812;4.934;2022-09-11T14:05:01;23.60;99.90
15834;DHT22;8017;50.812;4.934;2022-09-11T14:08:06;23.40;99.90
15834;DHT22;8017;50.812;4.934;2022-09-11T14:11:26;23.30;99.90
15834;DHT22;8017;50.812;4.934;2022-09-11T14:14:29;23.50;99.90
15834;DHT22;8017;50.812;4.934;2022-09-11T14:17:31;23.70;99.90
15834;DHT22;8017;50.812;4.934;2022-09-11T14:20:33;23.60;99.90
15834;DHT22;8017;50.812;4.934;2022-09-11T14:23:40;23.90;99.90
15834;DHT22;8017;50.812;4.934;2022-09-11T14:26:44;23.80;99.90
15834;DHT22;8017;50.812;4.934;2022-09-11T14:29:51;23.70;99.90
15834;DHT22;8017;50.812;4.934;2022-09-11T14:33:16;23.50;99.90
15834;DHT22;8017;50.812;4.934;2022-09-11T14:36:22;23.40;99.90
15834;DHT22;8017;50.812;4.934;2022-09-11T14:39:27;23.00;99.90
15834;DHT22;8017;50.812;4.934;2022-09-11T14:42:32;23.00;99.90
15834;DHT22;8017;50.812;4.934;2022-09-11T14:45:34;22.90;99.90
15834;DHT22;8017;50.812;4.934;2022-09-11T14:48:36;23.00;99.90
15834;DHT22;8017;50.812;4.934;2022-09-11T14:51:38;22.80;99.90
15834;DHT22;8017;50.812;4.934;2022-09-11T14:54:41;22.80;99.90
15834;DHT22;8017;50.812;4.934;2022-09-11T14:57:45;22.90;99.90
15834;DHT22;8017;50.812;4.934;2022-09-11T15:00:47;23.00;99.90
15834;DHT22;8017;50.812;4.934;2022-09-11T15:03:49;22.90;99.90
15834;DHT22;8017;50.812;4.934;2022-09-11T15:06:52;22.90;99.90
15834;DHT22;8017;50.812;4.934;2022-09-11T15:09:55;22.80;99.90
15834;DHT22;8017;50.812;4.934;2022-09-11T15:12:59;22.70;99.90
15834;DHT22;8017;50.812;4.934;2022-09-11T15:16:02;22.70;99.90
15834;DHT22;8017;50.812;4.934;2022-09-11T15:19:05;22.80;99.90
15834;DHT22;8017;50.812;4.934;2022-09-11T15:22:07;22.90;99.90
15834;DHT22;8017;50.812;4.934;2022-09-11T15:25:09;23.00;99.90
15834;DHT22;8017;50.812;4.934;2022-09-11T15:28:12;23.00;99.90
15834;DHT22;8017;50.812;4.934;2022-09-11T15:31:14;23.10;99.90
15834;DHT22;8017;50.812;4.934;2022-09-11T15:34:18;23.00;99.90
15834;DHT22;8017;50.812;4.934;2022-09-11T15:37:21;23.00;99.90
15834;DHT22;8017;50.812;4.934;2022-09-11T15:40:25;23.10;99.90
15834;DHT22;8017;50.812;4.934;2022-09-11T15:43:34;23.10;99.90
15834;DHT22;8017;50.812;4.934;2022-09-11T15:46:36;23.10;99.90
15834;DHT22;8017;50.812;4.934;2022-09-11T15:49:39;23.10;99.90
15834;DHT22;8017;50.812;4.934;2022-09-11T15:52:41;23.00;99.90
15834;DHT22;8017;50.812;4.934;2022-09-11T15:55:43;22.90;99.90
15834;DHT22;8017;50.812;4.934;2022-09-11T15:58:47;22.90;99.90
15834;DHT22;8017;50.812;4.934;2022-09-11T16:01:50;23.00;99.90
15834;DHT22;8017;50.812;4.934;2022-09-11T16:04:52;23.00;99.90
15834;DHT22;8017;50.812;4.934;2022-09-11T16:07:54;23.00;99.90
15834;DHT22;8017;50.812;4.934;2022-09-11T16:10:55;23.10;99.90
15834;DHT22;8017;50.812;4.934;2022-09-11T16:13:59;23.30;99.90
15834;DHT22;8017;50.812;4.934;2022-09-11T16:17:02;23.50;99.90
15834;DHT22;8017;50.812;4.934;2022-09-11T16:20:05;23.70;99.90
15834;DHT22;8017;50.812;4.934;2022-09-11T16:23:07;24.20;99.90
15834;DHT22;8017;50.812;4.934;2022-09-11T16:26:12;24.30;99.90
15834;DHT22;8017;50.812;4.934;2022-09-11T16:29:15;24.60;99.90
15834;DHT22;8017;50.812;4.934;2022-09-11T16:32:19;24.50;99.90
15834;DHT22;8017;50.812;4.934;2022-09-11T16:35:28;24.60;99.90
15834;DHT22;8017;50.812;4.934;2022-09-11T16:38:31;25.00;99.90
15834;DHT22;8017;50.812;4.934;2022-09-11T16:41:34;24.80;99.90
15834;DHT22;8017;50.812;4.934;2022-09-11T16:44:38;24.80;99.90
15834;DHT22;8017;50.812;4.934;2022-09-11T16:47:39;24.90;99.90
15834;DHT22;8017;50.812;4.934;2022-09-11T16:50:41;24.70;99.90
15834;DHT22;8017;50.812;4.934;2022-09-11T16:53:44;24.80;99.90
15834;DHT22;8017;50.812;4.934;2022-09-11T16:56:46;24.60;99.90
15834;DHT22;8017;50.812;4.934;2022-09-11T16:59:49;24.70;99.90
15834;DHT22;8017;50.812;4.934;2022-09-11T17:02:51;24.70;99.90
15834;DHT22;8017;50.812;4.934;2022-09-11T17:05:54;24.70;99.90
15834;DHT22;8017;50.812;4.934;2022-09-11T17:08:57;24.40;99.90
15834;DHT22;8017;50.812;4.934;2022-09-11T17:12:01;24.40;99.90
15834;DHT22;8017;50.812;4.934;2022-09-11T17:15:05;24.30;99.90
15834;DHT22;8017;50.812;4.934;2022-09-11T17:18:07;24.30;99.90
15834;DHT22;8017;50.812;4.934;2022-09-11T17:21:09;24.00;99.90
15834;DHT22;8017;50.812;4.934;2022-09-11T17:24:11;23.70;99.90
15834;DHT22;8017;50.812;4.934;2022-09-11T17:27:17;23.50;99.90
15834;DHT22;8017;50.812;4.934;2022-09-11T17:30:20;23.10;99.90
15834;DHT22;8017;50.812;4.934;2022-09-11T17:33:22;22.90;99.90
15834;DHT22;8017;50.812;4.934;2022-09-11T17:36:27;22.60;99.90
15834;DHT22;8017;50.812;4.934;2022-09-11T17:39:29;22.30;99.90
15834;DHT22;8017;50.812;4.934;2022-09-11T17:42:31;22.00;99.90
15834;DHT22;8017;50.812;4.934;2022-09-11T17:45:34;21.70;99.90
15834;DHT22;8017;50.812;4.934;2022-09-11T17:48:36;21.50;99.90
15834;DHT22;8017;50.812;4.934;2022-09-11T17:51:38;21.20;99.90
15834;DHT22;8017;50.812;4.934;2022-09-11T17:54:40;21.00;99.90
15834;DHT22;8017;50.812;4.934;2022-09-11T17:57:43;20.90;99.90
15834;DHT22;8017;50.812;4.934;2022-09-11T18:00:53;20.70;99.90
15834;DHT22;8017;50.812;4.934;2022-09-11T18:03:56;20.50;99.90
15834;DHT22;8017;50.812;4.934;2022-09-11T18:06:59;20.40;99.90
15834;DHT22;8017;50.812;4.934;2022-09-11T18:10:00;20.30;99.90
15834;DHT22;8017;50.812;4.934;2022-09-11T18:13:03;20.20;99.90
15834;DHT22;8017;50.812;4.934;2022-09-11T18:16:06;20.10;99.90
15834;DHT22;8017;50.812;4.934;2022-09-11T18:19:08;19.90;99.90
15834;DHT22;8017;50.812;4.934;2022-09-11T18:22:11;19.80;99.90
15834;DHT22;8017;50.812;4.934;2022-09-11T18:25:13;19.70;99.90
15834;DHT22;8017;50.812;4.934;2022-09-11T18:28:15;19.70;99.90
15834;DHT22;8017;50.812;4.934;2022-09-11T18:31:19;19.60;99.90
15834;DHT22;8017;50.812;4.934;2022-09-11T18:34:23;19.50;99.90
15834;DHT22;8017;50.812;4.934;2022-09-11T18:37:25;19.40;99.90
15834;DHT22;8017;50.812;4.934;2022-09-11T18:40:27;19.40;99.90
15834;DHT22;8017;50.812;4.934;2022-09-11T18:43:29;19.30;99.90
15834;DHT22;8017;50.812;4.934;2022-09-11T18:46:32;19.20;99.90
15834;DHT22;8017;50.812;4.934;2022-09-11T18:49:36;19.10;99.90
15834;DHT22;8017;50.812;4.934;2022-09-11T18:52:39;19.10;99.90
15834;DHT22;8017;50.812;4.934;2022-09-11T18:55:40;19.00;99.90
15834;DHT22;8017;50.812;4.934;2022-09-11T18:58:43;19.00;99.90
15834;DHT22;8017;50.812;4.934;2022-09-11T19:01:46;19.00;99.90
15834;DHT22;8017;50.812;4.934;2022-09-11T19:04:48;18.90;99.90
15834;DHT22;8017;50.812;4.934;2022-09-11T19:07:50;18.80;99.90
15834;DHT22;8017;50.812;4.934;2022-09-11T19:10:52;18.80;99.90
15834;DHT22;8017;50.812;4.934;2022-09-11T19:13:59;18.70;99.90
15834;DHT22;8017;50.812;4.934;2022-09-11T19:17:03;18.50;99.90
15834;DHT22;8017;50.812;4.934;2022-09-11T19:20:06;18.40;99.90
15834;DHT22;8017;50.812;4.934;2022-09-11T19:23:09;18.40;99.90
15834;DHT22;8017;50.812;4.934;2022-09-11T19:26:13;18.30;99.90
15834;DHT22;8017;50.812;4.934;2022-09-11T19:29:15;18.30;99.90
15834;DHT22;8017;50.812;4.934;2022-09-11T19:32:21;18.20;99.90
15834;DHT22;8017;50.812;4.934;2022-09-11T19:35:24;18.10;99.90
15834;DHT22;8017;50.812;4.934;2022-09-11T19:38:28;18.00;99.90
15834;DHT22;8017;50.812;4.934;2022-09-11T19:41:32;18.10;99.90
15834;DHT22;8017;50.812;4.934;2022-09-11T19:44:34;18.00;99.90
15834;DHT22;8017;50.812;4.934;2022-09-11T19:47:37;18.00;99.90
15834;DHT22;8017;50.812;4.934;2022-09-11T19:50:42;17.80;99.90
15834;DHT22;8017;50.812;4.934;2022-09-11T19:53:44;17.70;99.90
15834;DHT22;8017;50.812;4.934;2022-09-11T19:56:46;17.50;99.90
15834;DHT22;8017;50.812;4.934;2022-09-11T19:59:49;17.50;99.90
15834;DHT22;8017;50.812;4.934;2022-09-11T20:02:52;17.50;99.90